sensor_id;sensor_type;location;lat;lon;timestamp;temperature;humidity
47861;HTU21D;33620;52.340;5.984;2023-04-24T00:01:21;10.82;91.40
47861;HTU21D;33620;52.340;5.984;2023-04-24T00:03:47;10.92;91.79
47861;HTU21D;33620;52.340;5.984;2023-04-24T00:06:12;10.94;91.76
47861;HTU21D;33620;52.340;5.984;2023-04-24T00:08:44;10.94;91.92
47861;HTU21D;33620;52.340;5.984;2023-04-24T00:11:10;10.90;91.60
47861;HTU21D;33620;52.340;5.984;2023-04-24T00:13:36;10.79;91.25
47861;HTU21D;33620;52.340;5.984;2023-04-24T00:16:03;10.78;91.68
47861;HTU21D;33620;52.340;5.984;2023-04-24T00:18:31;10.67;91.88
47861;HTU21D;33620;52.340;5.984;2023-04-24T00:21:00;10.64;91.93
47861;HTU21D;33620;52.340;5.984;2023-04-24T00:23:25;10.52;91.86
47861;HTU21D;33620;52.340;5.984;2023-04-24T00:25:51;10.55;92.14
47861;HTU21D;33620;52.340;5.984;2023-04-24T00:28:19;10.48;92.15
47861;HTU21D;33620;52.340;5.984;2023-04-24T00:30:46;10.40;92.24
47861;HTU21D;33620;52.340;5.984;2023-04-24T00:33:15;10.42;92.36
47861;HTU21D;33620;52.340;5.984;2023-04-24T00:35:43;10.40;92.23
47861;HTU21D;33620;52.340;5.984;2023-04-24T00:38:11;10.37;91.86
47861;HTU21D;33620;52.340;5.984;2023-04-24T00:40:36;10.41;91.93
47861;HTU21D;33620;52.340;5.984;2023-04-24T00:43:02;10.44;91.75
47861;HTU21D;33620;52.340;5.984;2023-04-24T00:45:28;10.42;91.50
47861;HTU21D;33620;52.340;5.984;2023-04-24T00:47:53;10.48;91.50
47861;HTU21D;33620;52.340;5.984;2023-04-24T00:50:20;10.35;91.08
47861;HTU21D;33620;52.340;5.984;2023-04-24T00:52:49;10.39;91.50
47861;HTU21D;33620;52.340;5.984;2023-04-24T00:55:15;10.35;91.46
47861;HTU21D;33620;52.340;5.984;2023-04-24T00:57:41;10.27;91.52
47861;HTU21D;33620;52.340;5.984;2023-04-24T01:00:06;10.26;91.64
47861;HTU21D;33620;52.340;5.984;2023-04-24T01:02:37;10.28;92.03
47861;HTU21D;33620;52.340;5.984;2023-04-24T01:05:06;10.23;91.50
47861;HTU21D;33620;52.340;5.984;2023-04-24T01:07:34;10.28;91.65
47861;HTU21D;33620;52.340;5.984;2023-04-24T01:10:03;10.37;92.11
47861;HTU21D;33620;52.340;5.984;2023-04-24T01:12:29;10.18;91.35
47861;HTU21D;33620;52.340;5.984;2023-04-24T01:14:54;10.24;91.73
47861;HTU21D;33620;52.340;5.984;2023-04-24T01:17:22;10.33;91.88
47861;HTU21D;33620;52.340;5.984;2023-04-24T01:19:47;10.30;91.56
47861;HTU21D;33620;52.340;5.984;2023-04-24T01:22:14;10.31;91.52
47861;HTU21D;33620;52.340;5.984;2023-04-24T01:24:40;10.35;91.56
47861;HTU21D;33620;52.340;5.984;2023-04-24T01:27:06;10.37;91.37
47861;HTU21D;33620;52.340;5.984;2023-04-24T01:29:36;10.31;90.77
47861;HTU21D;33620;52.340;5.984;2023-04-24T01:32:02;10.25;90.79
47861;HTU21D;33620;52.340;5.984;2023-04-24T01:34:28;10.24;90.95
47861;HTU21D;33620;52.340;5.984;2023-04-24T01:36:57;10.27;91.09
47861;HTU21D;33620;52.340;5.984;2023-04-24T01:39:23;10.28;91.14
47861;HTU21D;33620;52.340;5.984;2023-04-24T01:41:51;10.14;91.19
47861;HTU21D;33620;52.340;5.984;2023-04-24T01:44:17;10.09;91.27
47861;HTU21D;33620;52.340;5.984;2023-04-24T01:46:45;10.18;91.53
47861;HTU21D;33620;52.340;5.984;2023-04-24T01:49:13;10.19;91.26
47861;HTU21D;33620;52.340;5.984;2023-04-24T01:51:41;10.21;91.41
47861;HTU21D;33620;52.340;5.984;2023-04-24T01:54:07;10.21;91.31
47861;HTU21D;33620;52.340;5.984;2023-04-24T01:56:33;10.27;91.34
47861;HTU21D;33620;52.340;5.984;2023-04-24T01:58:59;10.20;90.76
47861;HTU21D;33620;52.340;5.984;2023-04-24T02:01:25;10.20;91.02
47861;HTU21D;33620;52.340;5.984;2023-04-24T02:03:50;10.14;90.84
47861;HTU21D;33620;52.340;5.984;2023-04-24T02:06:16;10.19;91.11
47861;HTU21D;33620;52.340;5.984;2023-04-24T02:08:44;10.20;91.19
47861;HTU21D;33620;52.340;5.984;2023-04-24T02:11:10;10.13;91.34
47861;HTU21D;33620;52.340;5.984;2023-04-24T02:13:36;10.21;91.53
47861;HTU21D;33620;52.340;5.984;2023-04-24T02:16:01;10.24;91.56
47861;HTU21D;33620;52.340;5.984;2023-04-24T02:18:27;10.25;91.40
47861;HTU21D;33620;52.340;5.984;2023-04-24T02:20:53;10.20;91.25
47861;HTU21D;33620;52.340;5.984;2023-04-24T02:23:21;10.23;91.63
47861;HTU21D;33620;52.340;5.984;2023-04-24T02:25:50;10.19;91.58
47861;HTU21D;33620;52.340;5.984;2023-04-24T02:28:18;10.19;91.88
47861;HTU21D;33620;52.340;5.984;2023-04-24T02:30:44;10.14;91.76
47861;HTU21D;33620;52.340;5.984;2023-04-24T02:33:09;10.16;91.87
47861;HTU21D;33620;52.340;5.984;2023-04-24T02:35:35;10.22;91.97
47861;HTU21D;33620;52.340;5.984;2023-04-24T02:38:00;10.09;91.59
47861;HTU21D;33620;52.340;5.984;2023-04-24T02:40:26;10.01;92.03
47861;HTU21D;33620;52.340;5.984;2023-04-24T02:42:51;10.06;92.36
47861;HTU21D;33620;52.340;5.984;2023-04-24T02:45:22;10.09;92.27
47861;HTU21D;33620;52.340;5.984;2023-04-24T02:47:48;10.05;92.15
47861;HTU21D;33620;52.340;5.984;2023-04-24T02:50:16;10.05;92.26
47861;HTU21D;33620;52.340;5.984;2023-04-24T02:52:41;10.03;92.38
47861;HTU21D;33620;52.340;5.984;2023-04-24T02:55:07;9.99;92.35
47861;HTU21D;33620;52.340;5.984;2023-04-24T02:57:35;10.08;92.33
47861;HTU21D;33620;52.340;5.984;2023-04-24T03:00:00;10.05;92.02
47861;HTU21D;33620;52.340;5.984;2023-04-24T03:02:28;10.12;92.21
47861;HTU21D;33620;52.340;5.984;2023-04-24T03:04:54;10.12;91.93
47861;HTU21D;33620;52.340;5.984;2023-04-24T03:07:22;10.15;92.05
47861;HTU21D;33620;52.340;5.984;2023-04-24T03:09:53;10.15;91.73
47861;HTU21D;33620;52.340;5.984;2023-04-24T03:12:25;10.04;91.67
47861;HTU21D;33620;52.340;5.984;2023-04-24T03:14:51;10.04;91.83
47861;HTU21D;33620;52.340;5.984;2023-04-24T03:17:19;10.11;91.98
47861;HTU21D;33620;52.340;5.984;2023-04-24T03:19:45;10.10;91.98
47861;HTU21D;33620;52.340;5.984;2023-04-24T03:22:10;10.12;91.87
47861;HTU21D;33620;52.340;5.984;2023-04-24T03:24:39;10.14;92.03
47861;HTU21D;33620;52.340;5.984;2023-04-24T03:27:07;10.13;91.82
47861;HTU21D;33620;52.340;5.984;2023-04-24T03:29:33;10.11;91.87
47861;HTU21D;33620;52.340;5.984;2023-04-24T03:31:59;10.10;91.85
47861;HTU21D;33620;52.340;5.984;2023-04-24T03:34:24;10.04;91.74
47861;HTU21D;33620;52.340;5.984;2023-04-24T03:36:50;10.06;91.88
47861;HTU21D;33620;52.340;5.984;2023-04-24T03:39:18;10.07;91.58
47861;HTU21D;33620;52.340;5.984;2023-04-24T03:41:43;10.09;91.77
47861;HTU21D;33620;52.340;5.984;2023-04-24T03:44:09;9.99;91.42
47861;HTU21D;33620;52.340;5.984;2023-04-24T03:46:35;10.06;91.92
47861;HTU21D;33620;52.340;5.984;2023-04-24T03:49:03;10.04;91.71
47861;HTU21D;33620;52.340;5.984;2023-04-24T03:51:31;10.10;91.98
47861;HTU21D;33620;52.340;5.984;2023-04-24T03:53:57;10.09;91.51
47861;HTU21D;33620;52.340;5.984;2023-04-24T03:56:22;10.12;91.56
47861;HTU21D;33620;52.340;5.984;2023-04-24T03:58:48;10.06;91.42
47861;HTU21D;33620;52.340;5.984;2023-04-24T04:01:16;10.09;91.76
47861;HTU21D;33620;52.340;5.984;2023-04-24T04:03:44;10.11;91.68
47861;HTU21D;33620;52.340;5.984;2023-04-24T04:06:13;10.06;91.63
47861;HTU21D;33620;52.340;5.984;2023-04-24T04:08:44;10.07;91.75
47861;HTU21D;33620;52.340;5.984;2023-04-24T04:11:09;10.00;91.53
47861;HTU21D;33620;52.340;5.984;2023-04-24T04:13:35;10.04;91.61
47861;HTU21D;33620;52.340;5.984;2023-04-24T04:16:00;10.00;91.62
47861;HTU21D;33620;52.340;5.984;2023-04-24T04:18:28;10.05;91.85
47861;HTU21D;33620;52.340;5.984;2023-04-24T04:20:54;10.07;91.63
47861;HTU21D;33620;52.340;5.984;2023-04-24T04:23:20;10.07;91.64
47861;HTU21D;33620;52.340;5.984;2023-04-24T04:25:45;10.05;91.57
47861;HTU21D;33620;52.340;5.984;2023-04-24T04:28:12;10.07;91.61
47861;HTU21D;33620;52.340;5.984;2023-04-24T04:30:37;10.10;91.74
47861;HTU21D;33620;52.340;5.984;2023-04-24T04:33:03;10.07;91.69
47861;HTU21D;33620;52.340;5.984;2023-04-24T04:35:31;10.08;91.76
47861;HTU21D;33620;52.340;5.984;2023-04-24T04:37:56;10.09;91.75
47861;HTU21D;33620;52.340;5.984;2023-04-24T04:40:24;10.09;91.69
47861;HTU21D;33620;52.340;5.984;2023-04-24T04:42:49;10.13;91.69
47861;HTU21D;33620;52.340;5.984;2023-04-24T04:45:18;10.10;91.57
47861;HTU21D;33620;52.340;5.984;2023-04-24T04:47:43;10.07;91.72
47861;HTU21D;33620;52.340;5.984;2023-04-24T04:50:09;10.12;91.93
47861;HTU21D;33620;52.340;5.984;2023-04-24T04:52:35;10.13;91.71
47861;HTU21D;33620;52.340;5.984;2023-04-24T04:55:02;10.14;91.81
47861;HTU21D;33620;52.340;5.984;2023-04-24T04:57:31;10.18;91.82
47861;HTU21D;33620;52.340;5.984;2023-04-24T04:59:57;10.13;91.45
47861;HTU21D;33620;52.340;5.984;2023-04-24T05:02:22;10.13;91.59
47861;HTU21D;33620;52.340;5.984;2023-04-24T05:04:48;10.10;91.81
47861;HTU21D;33620;52.340;5.984;2023-04-24T05:07:19;10.10;92.21
47861;HTU21D;33620;52.340;5.984;2023-04-24T05:09:45;10.15;92.43
47861;HTU21D;33620;52.340;5.984;2023-04-24T05:12:11;10.19;92.19
47861;HTU21D;33620;52.340;5.984;2023-04-24T05:14:36;10.22;92.52
47861;HTU21D;33620;52.340;5.984;2023-04-24T05:17:04;10.24;92.38
47861;HTU21D;33620;52.340;5.984;2023-04-24T05:19:29;10.25;92.25
47861;HTU21D;33620;52.340;5.984;2023-04-24T05:22:03;10.29;92.43
47861;HTU21D;33620;52.340;5.984;2023-04-24T05:24:32;10.30;92.34
47861;HTU21D;33620;52.340;5.984;2023-04-24T05:26:58;10.34;92.38
47861;HTU21D;33620;52.340;5.984;2023-04-24T05:29:23;10.34;92.32
47861;HTU21D;33620;52.340;5.984;2023-04-24T05:31:53;10.31;91.95
47861;HTU21D;33620;52.340;5.984;2023-04-24T05:34:21;10.29;91.98
47861;HTU21D;33620;52.340;5.984;2023-04-24T05:36:49;10.27;92.21
47861;HTU21D;33620;52.340;5.984;2023-04-24T05:39:18;10.24;92.12
47861;HTU21D;33620;52.340;5.984;2023-04-24T05:41:44;10.28;92.49
47861;HTU21D;33620;52.340;5.984;2023-04-24T05:44:12;10.23;91.80
47861;HTU21D;33620;52.340;5.984;2023-04-24T05:46:38;10.25;92.10
47861;HTU21D;33620;52.340;5.984;2023-04-24T05:49:06;10.25;92.35
47861;HTU21D;33620;52.340;5.984;2023-04-24T05:51:31;10.26;92.40
47861;HTU21D;33620;52.340;5.984;2023-04-24T05:53:57;10.29;92.48
47861;HTU21D;33620;52.340;5.984;2023-04-24T05:56:25;10.26;92.18
47861;HTU21D;33620;52.340;5.984;2023-04-24T05:58:50;10.23;91.77
47861;HTU21D;33620;52.340;5.984;2023-04-24T06:01:16;10.21;91.90
47861;HTU21D;33620;52.340;5.984;2023-04-24T06:03:41;10.16;91.95
47861;HTU21D;33620;52.340;5.984;2023-04-24T06:06:07;10.14;92.40
47861;HTU21D;33620;52.340;5.984;2023-04-24T06:08:32;10.15;92.50
47861;HTU21D;33620;52.340;5.984;2023-04-24T06:10:58;10.10;92.39
47861;HTU21D;33620;52.340;5.984;2023-04-24T06:13:23;10.10;92.72
47861;HTU21D;33620;52.340;5.984;2023-04-24T06:15:48;10.12;92.83
47861;HTU21D;33620;52.340;5.984;2023-04-24T06:18:13;10.09;92.81
47861;HTU21D;33620;52.340;5.984;2023-04-24T06:20:39;10.07;93.13
47861;HTU21D;33620;52.340;5.984;2023-04-24T06:23:04;10.09;93.40
47861;HTU21D;33620;52.340;5.984;2023-04-24T06:25:30;10.06;93.08
47861;HTU21D;33620;52.340;5.984;2023-04-24T06:27:55;10.06;93.23
47861;HTU21D;33620;52.340;5.984;2023-04-24T06:30:21;10.08;93.53
47861;HTU21D;33620;52.340;5.984;2023-04-24T06:32:46;10.08;93.62
47861;HTU21D;33620;52.340;5.984;2023-04-24T06:35:12;10.09;93.64
47861;HTU21D;33620;52.340;5.984;2023-04-24T06:37:40;10.09;93.82
47861;HTU21D;33620;52.340;5.984;2023-04-24T06:40:06;10.07;93.98
47861;HTU21D;33620;52.340;5.984;2023-04-24T06:42:31;10.05;94.13
47861;HTU21D;33620;52.340;5.984;2023-04-24T06:44:57;10.03;94.16
47861;HTU21D;33620;52.340;5.984;2023-04-24T06:47:22;10.05;94.23
47861;HTU21D;33620;52.340;5.984;2023-04-24T06:49:47;9.95;94.01
47861;HTU21D;33620;52.340;5.984;2023-04-24T06:52:13;9.98;94.41
47861;HTU21D;33620;52.340;5.984;2023-04-24T06:54:38;10.01;94.53
47861;HTU21D;33620;52.340;5.984;2023-04-24T06:57:03;9.98;94.34
47861;HTU21D;33620;52.340;5.984;2023-04-24T06:59:29;9.96;94.33
47861;HTU21D;33620;52.340;5.984;2023-04-24T07:01:55;9.90;94.19
47861;HTU21D;33620;52.340;5.984;2023-04-24T07:04:20;9.89;94.37
47861;HTU21D;33620;52.340;5.984;2023-04-24T07:06:45;9.89;94.52
47861;HTU21D;33620;52.340;5.984;2023-04-24T07:09:11;9.89;94.51
47861;HTU21D;33620;52.340;5.984;2023-04-24T07:11:37;9.91;94.64
47861;HTU21D;33620;52.340;5.984;2023-04-24T07:14:04;9.90;94.70
47861;HTU21D;33620;52.340;5.984;2023-04-24T07:16:29;9.91;94.83
47861;HTU21D;33620;52.340;5.984;2023-04-24T07:18:55;9.86;94.74
47861;HTU21D;33620;52.340;5.984;2023-04-24T07:21:20;9.85;95.08
47861;HTU21D;33620;52.340;5.984;2023-04-24T07:23:45;9.80;95.30
47861;HTU21D;33620;52.340;5.984;2023-04-24T07:26:11;9.70;95.22
47861;HTU21D;33620;52.340;5.984;2023-04-24T07:28:36;9.64;95.27
47861;HTU21D;33620;52.340;5.984;2023-04-24T07:31:01;9.64;95.80
47861;HTU21D;33620;52.340;5.984;2023-04-24T07:33:27;9.71;95.88
47861;HTU21D;33620;52.340;5.984;2023-04-24T07:35:52;9.71;95.59
47861;HTU21D;33620;52.340;5.984;2023-04-24T07:38:17;9.66;95.49
47861;HTU21D;33620;52.340;5.984;2023-04-24T07:40:46;9.65;95.81
47861;HTU21D;33620;52.340;5.984;2023-04-24T07:43:12;9.70;95.74
47861;HTU21D;33620;52.340;5.984;2023-04-24T07:45:37;9.71;95.55
47861;HTU21D;33620;52.340;5.984;2023-04-24T07:48:03;9.72;95.63
47861;HTU21D;33620;52.340;5.984;2023-04-24T07:50:28;9.67;95.43
47861;HTU21D;33620;52.340;5.984;2023-04-24T07:52:53;9.55;95.06
47861;HTU21D;33620;52.340;5.984;2023-04-24T07:55:18;9.50;95.13
47861;HTU21D;33620;52.340;5.984;2023-04-24T07:57:44;9.52;95.10
47861;HTU21D;33620;52.340;5.984;2023-04-24T08:00:09;9.56;95.38
47861;HTU21D;33620;52.340;5.984;2023-04-24T08:02:35;9.48;94.92
47861;HTU21D;33620;52.340;5.984;2023-04-24T08:05:00;9.50;95.04
47861;HTU21D;33620;52.340;5.984;2023-04-24T08:07:26;9.50;95.20
47861;HTU21D;33620;52.340;5.984;2023-04-24T08:09:51;9.54;95.53
47861;HTU21D;33620;52.340;5.984;2023-04-24T08:12:16;9.53;95.24
47861;HTU21D;33620;52.340;5.984;2023-04-24T08:14:42;9.59;95.34
47861;HTU21D;33620;52.340;5.984;2023-04-24T08:17:07;9.46;94.78
47861;HTU21D;33620;52.340;5.984;2023-04-24T08:19:32;9.39;94.69
47861;HTU21D;33620;52.340;5.984;2023-04-24T08:21:59;9.40;94.79
47861;HTU21D;33620;52.340;5.984;2023-04-24T08:24:25;9.41;94.75
47861;HTU21D;33620;52.340;5.984;2023-04-24T08:26:51;9.40;94.75
47861;HTU21D;33620;52.340;5.984;2023-04-24T08:29:16;9.46;94.92
47861;HTU21D;33620;52.340;5.984;2023-04-24T08:31:42;9.46;94.83
47861;HTU21D;33620;52.340;5.984;2023-04-24T08:34:07;9.41;94.76
47861;HTU21D;33620;52.340;5.984;2023-04-24T08:36:32;9.42;94.92
47861;HTU21D;33620;52.340;5.984;2023-04-24T08:38:57;9.48;95.05
47861;HTU21D;33620;52.340;5.984;2023-04-24T08:41:23;9.46;94.62
47861;HTU21D;33620;52.340;5.984;2023-04-24T08:43:51;9.48;94.65
47861;HTU21D;33620;52.340;5.984;2023-04-24T08:46:16;9.47;94.66
47861;HTU21D;33620;52.340;5.984;2023-04-24T08:48:42;9.45;94.40
47861;HTU21D;33620;52.340;5.984;2023-04-24T08:51:08;9.46;94.29
47861;HTU21D;33620;52.340;5.984;2023-04-24T08:53:33;9.54;94.71
47861;HTU21D;33620;52.340;5.984;2023-04-24T08:55:59;9.52;94.53
47861;HTU21D;33620;52.340;5.984;2023-04-24T08:58:26;9.49;94.44
47861;HTU21D;33620;52.340;5.984;2023-04-24T09:00:53;9.42;94.87
47861;HTU21D;33620;52.340;5.984;2023-04-24T09:03:19;9.47;95.03
47861;HTU21D;33620;52.340;5.984;2023-04-24T09:05:46;9.52;95.07
47861;HTU21D;33620;52.340;5.984;2023-04-24T09:08:13;9.48;94.91
47861;HTU21D;33620;52.340;5.984;2023-04-24T09:10:39;9.42;94.86
47861;HTU21D;33620;52.340;5.984;2023-04-24T09:13:04;9.45;94.84
47861;HTU21D;33620;52.340;5.984;2023-04-24T09:15:30;9.44;94.77
47861;HTU21D;33620;52.340;5.984;2023-04-24T09:17:55;9.48;95.07
47861;HTU21D;33620;52.340;5.984;2023-04-24T09:20:21;9.48;94.85
47861;HTU21D;33620;52.340;5.984;2023-04-24T09:22:46;9.47;94.84
47861;HTU21D;33620;52.340;5.984;2023-04-24T09:25:12;9.38;94.92
47861;HTU21D;33620;52.340;5.984;2023-04-24T09:27:41;9.41;94.96
47861;HTU21D;33620;52.340;5.984;2023-04-24T09:30:06;9.50;95.04
47861;HTU21D;33620;52.340;5.984;2023-04-24T09:32:32;9.40;94.36
47861;HTU21D;33620;52.340;5.984;2023-04-24T09:35:08;9.44;93.80
47861;HTU21D;33620;52.340;5.984;2023-04-24T09:37:40;9.54;94.20
47861;HTU21D;33620;52.340;5.984;2023-04-24T09:40:13;9.52;93.78
47861;HTU21D;33620;52.340;5.984;2023-04-24T09:42:39;9.40;93.75
47861;HTU21D;33620;52.340;5.984;2023-04-24T09:45:08;9.54;94.57
47861;HTU21D;33620;52.340;5.984;2023-04-24T09:47:37;9.50;93.91
47861;HTU21D;33620;52.340;5.984;2023-04-24T09:50:12;9.44;93.75
47861;HTU21D;33620;52.340;5.984;2023-04-24T09:52:41;9.52;94.24
47861;HTU21D;33620;52.340;5.984;2023-04-24T09:55:20;9.39;93.91
47861;HTU21D;33620;52.340;5.984;2023-04-24T09:57:52;9.44;94.46
47861;HTU21D;33620;52.340;5.984;2023-04-24T10:00:27;9.44;94.31
47861;HTU21D;33620;52.340;5.984;2023-04-24T10:03:00;9.31;93.78
47861;HTU21D;33620;52.340;5.984;2023-04-24T10:05:32;9.15;93.93
47861;HTU21D;33620;52.340;5.984;2023-04-24T10:08:02;9.06;93.91
47861;HTU21D;33620;52.340;5.984;2023-04-24T10:10:28;9.11;94.18
47861;HTU21D;33620;52.340;5.984;2023-04-24T10:12:53;9.09;93.66
47861;HTU21D;33620;52.340;5.984;2023-04-24T10:15:20;9.10;93.81
47861;HTU21D;33620;52.340;5.984;2023-04-24T10:17:49;9.12;93.38
47861;HTU21D;33620;52.340;5.984;2023-04-24T10:20:17;9.22;93.85
47861;HTU21D;33620;52.340;5.984;2023-04-24T10:22:43;9.30;93.43
47861;HTU21D;33620;52.340;5.984;2023-04-24T10:25:11;9.37;92.58
47861;HTU21D;33620;52.340;5.984;2023-04-24T10:27:36;9.47;92.84
47861;HTU21D;33620;52.340;5.984;2023-04-24T10:30:03;9.42;91.53
47861;HTU21D;33620;52.340;5.984;2023-04-24T10:32:28;9.44;90.95
47861;HTU21D;33620;52.340;5.984;2023-04-24T10:34:54;9.42;90.32
47861;HTU21D;33620;52.340;5.984;2023-04-24T10:37:21;9.40;89.55
47861;HTU21D;33620;52.340;5.984;2023-04-24T10:39:47;9.24;87.96
47861;HTU21D;33620;52.340;5.984;2023-04-24T10:42:16;9.30;88.98
47861;HTU21D;33620;52.340;5.984;2023-04-24T10:44:41;9.19;86.13
47861;HTU21D;33620;52.340;5.984;2023-04-24T10:47:12;9.24;86.84
47861;HTU21D;33620;52.340;5.984;2023-04-24T10:49:37;9.32;87.20
47861;HTU21D;33620;52.340;5.984;2023-04-24T10:52:03;9.27;86.93
47861;HTU21D;33620;52.340;5.984;2023-04-24T10:59:43;9.37;86.09
47861;HTU21D;33620;52.340;5.984;2023-04-24T11:02:09;9.36;85.52
47861;HTU21D;33620;52.340;5.984;2023-04-24T11:04:35;9.44;85.83
47861;HTU21D;33620;52.340;5.984;2023-04-24T11:07:00;9.55;87.15
47861;HTU21D;33620;52.340;5.984;2023-04-24T11:09:26;9.55;86.35
47861;HTU21D;33620;52.340;5.984;2023-04-24T11:12:02;9.63;87.16
47861;HTU21D;33620;52.340;5.984;2023-04-24T11:14:27;9.65;86.28
47861;HTU21D;33620;52.340;5.984;2023-04-24T11:16:56;9.56;84.16
47861;HTU21D;33620;52.340;5.984;2023-04-24T11:19:22;9.66;85.44
47861;HTU21D;33620;52.340;5.984;2023-04-24T11:22:01;9.66;85.01
47861;HTU21D;33620;52.340;5.984;2023-04-24T11:24:48;9.71;85.15
47861;HTU21D;33620;52.340;5.984;2023-04-24T11:27:15;9.67;85.03
47861;HTU21D;33620;52.340;5.984;2023-04-24T11:32:33;9.60;85.06
47861;HTU21D;33620;52.340;5.984;2023-04-24T11:37:29;9.65;84.84
47861;HTU21D;33620;52.340;5.984;2023-04-24T11:39:58;9.71;84.83
47861;HTU21D;33620;52.340;5.984;2023-04-24T11:42:24;9.75;83.69
47861;HTU21D;33620;52.340;5.984;2023-04-24T11:44:52;9.95;84.43
47861;HTU21D;33620;52.340;5.984;2023-04-24T11:47:17;9.95;82.27
47861;HTU21D;33620;52.340;5.984;2023-04-24T11:49:43;10.07;82.82
47861;HTU21D;33620;52.340;5.984;2023-04-24T11:52:08;9.92;81.30
47861;HTU21D;33620;52.340;5.984;2023-04-24T11:54:33;9.84;80.13
47861;HTU21D;33620;52.340;5.984;2023-04-24T11:56:59;9.75;80.85
47861;HTU21D;33620;52.340;5.984;2023-04-24T11:59:24;9.80;82.40
47861;HTU21D;33620;52.340;5.984;2023-04-24T12:01:50;9.79;82.38
47861;HTU21D;33620;52.340;5.984;2023-04-24T12:04:16;9.65;82.77
47861;HTU21D;33620;52.340;5.984;2023-04-24T12:07:00;9.65;82.57
47861;HTU21D;33620;52.340;5.984;2023-04-24T12:09:26;9.65;83.15
47861;HTU21D;33620;52.340;5.984;2023-04-24T12:11:55;9.64;83.45
47861;HTU21D;33620;52.340;5.984;2023-04-24T12:14:23;9.67;83.38
47861;HTU21D;33620;52.340;5.984;2023-04-24T12:16:49;9.77;81.91
47861;HTU21D;33620;52.340;5.984;2023-04-24T12:19:21;9.92;81.63
47861;HTU21D;33620;52.340;5.984;2023-04-24T12:21:59;10.14;82.45
47861;HTU21D;33620;52.340;5.984;2023-04-24T12:24:25;10.19;80.12
47861;HTU21D;33620;52.340;5.984;2023-04-24T12:26:50;10.23;79.56
47861;HTU21D;33620;52.340;5.984;2023-04-24T12:29:22;10.19;79.44
47861;HTU21D;33620;52.340;5.984;2023-04-24T12:31:47;10.21;79.65
47861;HTU21D;33620;52.340;5.984;2023-04-24T12:34:22;10.18;79.11
47861;HTU21D;33620;52.340;5.984;2023-04-24T12:36:48;10.04;80.04
47861;HTU21D;33620;52.340;5.984;2023-04-24T12:39:22;10.04;82.86
47861;HTU21D;33620;52.340;5.984;2023-04-24T12:41:57;9.91;83.28
47861;HTU21D;33620;52.340;5.984;2023-04-24T12:44:32;9.65;83.84
47861;HTU21D;33620;52.340;5.984;2023-04-24T12:46:59;9.52;83.20
47861;HTU21D;33620;52.340;5.984;2023-04-24T12:49:25;9.53;84.36
47861;HTU21D;33620;52.340;5.984;2023-04-24T12:51:50;9.69;85.61
47861;HTU21D;33620;52.340;5.984;2023-04-24T12:54:16;9.68;84.46
47861;HTU21D;33620;52.340;5.984;2023-04-24T12:56:41;9.78;84.55
47861;HTU21D;33620;52.340;5.984;2023-04-24T12:59:06;9.86;82.55
47861;HTU21D;33620;52.340;5.984;2023-04-24T13:01:32;9.96;83.42
47861;HTU21D;33620;52.340;5.984;2023-04-24T13:03:57;10.10;83.06
47861;HTU21D;33620;52.340;5.984;2023-04-24T13:06:22;10.08;82.24
47861;HTU21D;33620;52.340;5.984;2023-04-24T13:08:48;9.91;80.75
47861;HTU21D;33620;52.340;5.984;2023-04-24T13:11:13;9.95;82.30
47861;HTU21D;33620;52.340;5.984;2023-04-24T13:13:39;9.91;81.70
47861;HTU21D;33620;52.340;5.984;2023-04-24T13:16:04;10.03;82.49
47861;HTU21D;33620;52.340;5.984;2023-04-24T13:18:29;10.11;81.18
47861;HTU21D;33620;52.340;5.984;2023-04-24T13:20:55;10.24;80.20
47861;HTU21D;33620;52.340;5.984;2023-04-24T13:23:20;10.34;79.17
47861;HTU21D;33620;52.340;5.984;2023-04-24T13:25:46;10.52;80.24
47861;HTU21D;33620;52.340;5.984;2023-04-24T13:28:12;10.62;79.01
47861;HTU21D;33620;52.340;5.984;2023-04-24T13:30:37;10.81;79.01
47861;HTU21D;33620;52.340;5.984;2023-04-24T13:33:03;10.75;77.53
47861;HTU21D;33620;52.340;5.984;2023-04-24T13:35:28;10.74;77.69
47861;HTU21D;33620;52.340;5.984;2023-04-24T13:37:53;10.53;77.88
47861;HTU21D;33620;52.340;5.984;2023-04-24T13:40:19;10.34;77.82
47861;HTU21D;33620;52.340;5.984;2023-04-24T13:42:44;10.31;79.15
47861;HTU21D;33620;52.340;5.984;2023-04-24T13:45:09;10.41;80.11
47861;HTU21D;33620;52.340;5.984;2023-04-24T13:47:35;10.24;79.72
47861;HTU21D;33620;52.340;5.984;2023-04-24T13:50:01;10.20;82.08
47861;HTU21D;33620;52.340;5.984;2023-04-24T13:52:26;10.05;84.88
47861;HTU21D;33620;52.340;5.984;2023-04-24T13:54:51;9.88;84.59
47861;HTU21D;33620;52.340;5.984;2023-04-24T13:57:16;9.42;82.22
47861;HTU21D;33620;52.340;5.984;2023-04-24T13:59:42;9.34;82.75
47861;HTU21D;33620;52.340;5.984;2023-04-24T14:02:07;9.35;83.75
47861;HTU21D;33620;52.340;5.984;2023-04-24T14:04:32;9.44;84.16
47861;HTU21D;33620;52.340;5.984;2023-04-24T14:06:58;9.37;82.84
47861;HTU21D;33620;52.340;5.984;2023-04-24T14:09:23;9.39;83.37
47861;HTU21D;33620;52.340;5.984;2023-04-24T14:11:48;9.48;83.91
47861;HTU21D;33620;52.340;5.984;2023-04-24T14:14:14;9.48;83.18
47861;HTU21D;33620;52.340;5.984;2023-04-24T14:16:39;9.49;81.55
47861;HTU21D;33620;52.340;5.984;2023-04-24T14:19:04;9.50;81.25
47861;HTU21D;33620;52.340;5.984;2023-04-24T14:21:31;9.63;81.60
47861;HTU21D;33620;52.340;5.984;2023-04-24T14:23:56;9.62;80.41
47861;HTU21D;33620;52.340;5.984;2023-04-24T14:26:21;9.61;80.46
47861;HTU21D;33620;52.340;5.984;2023-04-24T14:28:47;9.64;79.00
47861;HTU21D;33620;52.340;5.984;2023-04-24T14:31:12;9.67;78.39
47861;HTU21D;33620;52.340;5.984;2023-04-24T14:33:37;9.75;78.12
47861;HTU21D;33620;52.340;5.984;2023-04-24T14:36:03;9.74;77.41
47861;HTU21D;33620;52.340;5.984;2023-04-24T14:38:30;9.76;77.31
47861;HTU21D;33620;52.340;5.984;2023-04-24T14:40:56;9.88;78.21
47861;HTU21D;33620;52.340;5.984;2023-04-24T14:43:21;10.04;78.82
47861;HTU21D;33620;52.340;5.984;2023-04-24T14:45:47;10.09;77.91
47861;HTU21D;33620;52.340;5.984;2023-04-24T14:48:12;10.08;77.50
47861;HTU21D;33620;52.340;5.984;2023-04-24T14:50:38;10.39;78.24
47861;HTU21D;33620;52.340;5.984;2023-04-24T14:53:03;10.66;77.88
47861;HTU21D;33620;52.340;5.984;2023-04-24T14:55:29;10.67;74.28
47861;HTU21D;33620;52.340;5.984;2023-04-24T14:57:54;10.70;73.62
47861;HTU21D;33620;52.340;5.984;2023-04-24T15:00:20;10.75;73.08
47861;HTU21D;33620;52.340;5.984;2023-04-24T15:02:45;10.83;73.06
47861;HTU21D;33620;52.340;5.984;2023-04-24T15:05:11;11.07;72.51
47861;HTU21D;33620;52.340;5.984;2023-04-24T15:07:37;11.08;70.37
47861;HTU21D;33620;52.340;5.984;2023-04-24T15:10:02;10.96;70.30
47861;HTU21D;33620;52.340;5.984;2023-04-24T15:12:28;10.95;71.53
47861;HTU21D;33620;52.340;5.984;2023-04-24T15:14:54;10.96;71.97
47861;HTU21D;33620;52.340;5.984;2023-04-24T15:17:19;11.09;70.73
47861;HTU21D;33620;52.340;5.984;2023-04-24T15:19:44;11.14;71.36
47861;HTU21D;33620;52.340;5.984;2023-04-24T15:22:10;11.17;68.56
47861;HTU21D;33620;52.340;5.984;2023-04-24T15:24:35;11.30;68.30
47861;HTU21D;33620;52.340;5.984;2023-04-24T15:27:00;11.32;69.00
47861;HTU21D;33620;52.340;5.984;2023-04-24T15:29:27;11.14;67.20